1879 Depression NOT_NAMED (1879265N20089)


IBTrACS version v04r00. Visit IBTrACS website for data access.
Please direct all questions to the IBTrACS Q and A forum

Storm track - Intensity - Wind Radii - Intensity Data - Source Data - All data

Summary Information

Storm ID 1879265N20089
Start Sep 22 00Z
Landfall Sep 24 03Z
Max Intensity 30 kt (Sep 22 03Z)
End Sep 28 03Z
ATCF IDs
Track status Best track data.

Storm track plot

Map of storm track

Intensity plots

Map of storm track

Radial wind information

No radial wind information for this storm


Position and Intensity Table

BASIN ISO_TIME_________ NATURE LAT LON DS824 WIND
degrees north degrees east kts
NI 1879-09-22 00:00:00 TS 19.60 88.50 30
NI 03:00:00 TS 19.60 88.50 30
NI 06:00:00 TS 19.60 88.49 30
NI 09:00:00 TS 19.60 88.49 30
NI 12:00:00 TS 19.60 88.49 30
NI 15:00:00 TS 19.60 88.50 30
NI 18:00:00 TS 19.60 88.52 30
NI 21:00:00 TS 19.59 88.56 30
NI 1879-09-23 00:00:00 TS 19.59 88.54 30
NI 03:00:00 TS 19.62 88.43 30
NI 06:00:00 TS 19.67 88.20 30
NI 09:00:00 TS 19.72 87.89 30
NI 12:00:00 TS 19.77 87.56 30
NI 15:00:00 TS 19.82 87.27 30
NI 18:00:00 TS 19.87 87.03 30
NI 21:00:00 TS 19.91 86.79 30
NI 1879-09-24 00:00:00 TS 19.97 86.54 30
NI 03:00:00 TS 20.05 86.23 30
NI 06:00:00 TS 20.14 85.89 30
NI 09:00:00 TS 20.25 85.55 30
NI 12:00:00 TS 20.35 85.19 30
NI 15:00:00 TS 20.45 84.80 30
NI 18:00:00 TS 20.54 84.42 30
NI 21:00:00 TS 20.61 84.05 30
NI 1879-09-25 00:00:00 TS 20.66 83.63 30
NI 03:00:00 TS 20.72 83.11 30
NI 06:00:00 TS 20.79 82.53 30
NI 09:00:00 TS 20.87 81.96 30
NI 12:00:00 TS 20.96 81.39 30
NI 15:00:00 TS 21.05 80.82 30
NI 18:00:00 TS 21.15 80.26 30
NI 21:00:00 TS 21.27 79.70 30
NI 1879-09-26 00:00:00 TS 21.36 79.22 30
NI 03:00:00 TS 21.40 78.86 30
NI 06:00:00 TS 21.41 78.58 30
NI 09:00:00 TS 21.44 78.32 30
NI 12:00:00 TS 21.48 78.10 30
NI 15:00:00 TS 21.54 77.90 30
NI 18:00:00 TS 21.64 77.70 30
NI 21:00:00 TS 21.76 77.50 30
NI 1879-09-27 00:00:00 TS 21.91 77.30 30
NI 03:00:00 TS 22.09 77.08 30
NI 06:00:00 TS 22.30 76.83 30
NI 09:00:00 TS 22.53 76.58 30
NI 12:00:00 TS 22.78 76.33 30
NI 15:00:00 TS 23.02 76.07 30
NI 18:00:00 TS 23.26 75.84 30
NI 21:00:00 TS 23.50 75.60 30
NI 1879-09-28 00:00:00 TS 23.73 75.36 30
NI 03:00:00 NR 23.90 75.20

Source Information

Agency Information
USA
TOKYO
CMA
HKO
NEWDELHI
REUNION
BOM
NADI
WELLINGTON
DS824 n_ind.dat:24:NOT NAMED
TD9636 cons_worldwide_trop_cyclone_18710101-19891231-004:Line=229
TD9635
NEUMANN
MLC

All available IBTrACS Data

SEASON BASIN SUBBASIN ISO_TIME_________ NATURE LAT LON DIST2LAND LANDFALL IFLAG USA SSHS DS824 LAT DS824 LON DS824 STAGE DS824 WIND TD9636 LAT TD9636 LON TD9636 STAGE STORM SPEED STORM DIR
Year degrees north degrees east km km 1 degrees north degrees east kts degrees north degrees east kts degrees
1879 NI BB 1879-09-22 00:00:00 TS 19.60 88.50 199 199 _________O____ -1 19.60 88.50 TC 30 0 0
1879 NI BB 03:00:00 TS 19.60 88.50 199 199 _________PO___ -1 19.60 88.50 TC 30 19.60 88.50 1 0 0
1879 NI BB 06:00:00 TS 19.60 88.49 199 199 _________OP___ -1 19.60 88.50 TC 30 19.60 88.48 1 0 0
1879 NI BB 09:00:00 TS 19.60 88.49 199 199 _________PP___ -1 19.60 88.50 TC 30 19.61 88.47 1 0 0
1879 NI BB 12:00:00 TS 19.60 88.49 199 199 _________OP___ -1 19.60 88.50 TC 30 19.60 88.48 1 0 0
1879 NI BB 15:00:00 TS 19.60 88.50 199 199 _________PO___ -1 19.60 88.50 TC 30 19.60 88.50 1 0 99
1879 NI BB 18:00:00 TS 19.60 88.52 199 199 _________OP___ -1 19.60 88.50 TC 30 19.59 88.54 1 1 102
1879 NI BB 21:00:00 TS 19.59 88.56 207 199 _________PP___ -1 19.59 88.53 TC 30 19.58 88.58 1 0 0
1879 NI BB 1879-09-23 00:00:00 TS 19.59 88.54 199 191 _________OP___ -1 19.60 88.50 TC 30 19.59 88.58 1 1 284
1879 NI BB 03:00:00 TS 19.62 88.43 191 167 _________PO___ -1 19.64 88.35 TC 30 19.60 88.50 1 3 283
1879 NI BB 06:00:00 TS 19.67 88.20 167 142 _________OP___ -1 19.70 88.10 TC 30 19.64 88.30 1 5 281
1879 NI BB 09:00:00 TS 19.72 87.89 142 109 _________PP___ -1 19.75 87.76 TC 30 19.69 88.03 1 6 280
1879 NI BB 12:00:00 TS 19.77 87.56 109 83 _________OP___ -1 19.80 87.40 TC 30 19.74 87.71 1 6 280
1879 NI BB 15:00:00 TS 19.82 87.27 83 54 _________PO___ -1 19.85 87.13 TC 30 19.80 87.40 1 5 281
1879 NI BB 18:00:00 TS 19.87 87.03 54 43 _________OP___ -1 19.90 86.90 TC 30 19.84 87.16 1 5 281
1879 NI BB 21:00:00 TS 19.91 86.79 43 20 _________PP___ -1 19.94 86.66 TC 30 19.88 86.92 1 5 282
1879 NI BB 1879-09-24 00:00:00 TS 19.97 86.54 10 0 _________OP___ -1 20.00 86.40 TC 30 19.94 86.67 1 5 284
1879 NI BB 03:00:00 TS 20.05 86.23 0 0 _________PO___ -1 20.09 86.07 TC 30 20.00 86.40 1 6 286
1879 NI BB 06:00:00 TS 20.14 85.89 0 0 _________OP___ -1 20.20 85.70 TC 30 20.09 86.09 1 7 287
1879 NI BB 09:00:00 TS 20.25 85.55 0 0 _________PP___ -1 20.30 85.36 TC 30 20.19 85.75 1 7 287
1879 NI BB 12:00:00 TS 20.35 85.19 0 0 _________OP___ -1 20.40 85.00 TC 30 20.30 85.38 1 7 286
1879 NI BB 15:00:00 TS 20.45 84.80 0 0 _________PO___ -1 20.51 84.61 TC 30 20.40 85.00 1 7 285
1879 NI BB 18:00:00 TS 20.54 84.42 0 0 _________OP___ -1 20.60 84.20 TC 30 20.48 84.64 1 7 282
1879 NI BB 21:00:00 TS 20.61 84.05 0 0 _________PP___ -1 20.66 83.83 TC 30 20.56 84.27 1 8 279
1879 NI BB 1879-09-25 00:00:00 TS 20.66 83.63 0 0 _________OP___ -1 20.70 83.40 TC 30 20.63 83.86 1 9 277
1879 NI BB 03:00:00 TS 20.72 83.11 0 0 _________PO___ -1 20.74 82.82 TC 30 20.70 83.40 1 10 277
1879 NI BB 06:00:00 TS 20.79 82.53 0 0 _________OP___ -1 20.80 82.20 TC 30 20.77 82.87 1 11 278
1879 NI BB 09:00:00 TS 20.87 81.96 0 0 _________PP___ -1 20.89 81.64 TC 30 20.84 82.29 1 11 279
1879 NI BB 12:00:00 TS 20.96 81.39 0 0 _________OP___ -1 21.00 81.10 TC 30 20.92 81.69 1 11 280
1879 NI BB 15:00:00 TS 21.05 80.82 0 0 _________PO___ -1 21.10 80.54 TC 30 21.00 81.10 1 11 280
1879 NI BB 18:00:00 TS 21.15 80.26 0 0 _________OP___ -1 21.20 80.00 TC 30 21.11 80.52 1 11 282
1879 NI BB 21:00:00 TS 21.27 79.70 0 0 _________PP___ -1 21.32 79.46 TC 30 21.22 79.95 1 10 282
1879 NI BB 1879-09-26 00:00:00 TS 21.36 79.22 0 0 _________OP___ -1 21.40 79.00 TC 30 21.32 79.44 1 8 280
1879 NI BB 03:00:00 TS 21.40 78.86 0 0 _________PO___ -1 21.41 78.71 TC 30 21.40 79.00 1 6 275
1879 NI BB 06:00:00 TS 21.41 78.58 0 0 _________OP___ -1 21.40 78.50 TC 30 21.43 78.66 1 5 274
1879 NI BB 09:00:00 TS 21.44 78.32 0 0 _________PP___ -1 21.43 78.24 TC 30 21.44 78.40 1 5 278
1879 NI BB 12:00:00 TS 21.48 78.10 0 0 _________OP___ -1 21.50 78.00 TC 30 21.46 78.19 1 4 285
1879 NI AS 15:00:00 TS 21.54 77.90 0 0 _________PO___ -1 21.58 77.79 TC 30 21.50 78.00 1 4 293
1879 NI AS 18:00:00 TS 21.64 77.70 0 0 _________OP___ -1 21.70 77.60 TC 30 21.58 77.79 1 4 301
1879 NI AS 21:00:00 TS 21.76 77.50 0 0 _________PP___ -1 21.83 77.41 TC 30 21.69 77.60 1 5 307
1879 NI AS 1879-09-27 00:00:00 TS 21.91 77.30 0 0 _________OP___ -1 22.00 77.20 TC 30 21.83 77.41 1 5 310
1879 NI AS 03:00:00 TS 22.09 77.08 0 0 _________PO___ -1 22.18 76.96 TC 30 22.00 77.20 1 6 311
1879 NI AS 06:00:00 TS 22.30 76.83 0 0 _________OP___ -1 22.40 76.70 TC 30 22.19 76.96 1 6 313
1879 NI AS 09:00:00 TS 22.53 76.58 0 0 _________PP___ -1 22.64 76.45 TC 30 22.41 76.71 1 7 316
1879 NI AS 12:00:00 TS 22.78 76.33 0 0 _________OP___ -1 22.90 76.20 TC 30 22.65 76.46 1 7 317
1879 NI AS 15:00:00 TS 23.02 76.07 0 0 _________PO___ -1 23.15 75.95 TC 30 22.90 76.20 1 7 317
1879 NI AS 18:00:00 TS 23.26 75.84 0 0 _________OP___ -1 23.40 75.70 TC 30 23.15 75.95 1 6 317
1879 NI AS 21:00:00 TS 23.50 75.60 0 0 _________PP___ -1 23.65 75.45 TC 30 23.40 75.70 1 6 318
1879 NI AS 1879-09-28 00:00:00 TS 23.73 75.36 0 0 _________OP___ -1 23.90 75.20 TC 30 23.65 75.45 1 5 318
1879 NI AS 03:00:00 NR 23.90 75.20 0 __________O___ -1 TC 23.90 75.20 1 5 317